Time;durP1;ratioP1;P1;durP2;ratioP2;P2;SDS_P1;SDS_P2;PMS_P1;PMS_P2;Temp;Humidity;BMP_temperature;BMP_pressure;BME280_temperature;BME280_humidity;BME280_pressure;Samples;Min_cycle;Max_cycle;Signal;HPM_P1;HPM_P2
2023/07/05 00:00:59;;;;;;;;;4.00;3.50;;;;;;;;5048462;28;8870;-82
2023/07/05 00:03:27;;;;;;;;;4.00;2.75;;;;;;;;5050383;28;9224;-86
2023/07/05 00:05:55;;;;;;;;;4.25;4.00;;;;;;;;5063154;28;8886;-82
2023/07/05 00:08:23;;;;;;;;;4.00;4.00;;;;;;;;5050486;28;8873;-83
2023/07/05 00:10:50;;;;;;;;;4.00;4.00;;;;;;;;5048777;28;8865;-84
2023/07/05 00:13:19;;;;;;;;;3.50;3.50;;;;;;;;5048801;28;8864;-84
2023/07/05 00:15:48;;;;;;;;;5.25;4.00;;;;;;;;5051847;28;8883;-85
2023/07/05 00:18:16;;;;;;;;;5.00;4.00;;;;;;;;5059485;28;8865;-85
2023/07/05 00:20:44;;;;;;;;;3.25;3.25;;;;;;;;5048842;28;9621;-83
2023/07/05 00:23:11;;;;;;;;;4.50;4.50;;;;;;;;5048514;28;9754;-83
2023/07/05 00:25:39;;;;;;;;;3.75;3.75;;;;;;;;5049448;28;8943;-82
2023/07/05 00:28:06;;;;;;;;;4.00;4.00;;;;;;;;5039552;28;8862;-83
2023/07/05 00:30:35;;;;;;;;;4.00;4.00;;;;;;;;5048325;28;8886;-83
2023/07/05 00:33:02;;;;;;;;;4.50;4.50;;;;;;;;5054887;28;8858;-83
2023/07/05 00:35:29;;;;;;;;;5.50;5.50;;;;;;;;5054056;28;8877;-82
2023/07/05 00:37:57;;;;;;;;;3.75;3.75;;;;;;;;5049260;28;8849;-83
2023/07/05 00:40:24;;;;;;;;;5.25;5.25;;;;;;;;5061184;28;8858;-83
2023/07/05 00:42:51;;;;;;;;;5.50;5.50;;;;;;;;5060559;28;8976;-84
2023/07/05 00:45:44;;;;;;;;;4.00;4.00;;;;;;;;5049785;28;8866;-83
2023/07/05 00:48:14;;;;;;;;;3.75;3.75;;;;;;;;5050742;28;8857;-84
2023/07/05 00:50:44;;;;;;;;;7.75;7.00;;;;;;;;5050257;28;8857;-84
2023/07/05 00:53:12;;;;;;;;;6.00;6.00;;;;;;;;5041892;28;8865;-84
2023/07/05 00:55:43;;;;;;;;;6.00;6.00;;;;;;;;5048305;28;8865;-83
2023/07/05 00:58:10;;;;;;;;;5.25;5.25;;;;;;;;5061045;28;8863;-83
2023/07/05 01:00:39;;;;;;;;;8.00;6.75;;;;;;;;5049740;28;8806;-83
2023/07/05 01:03:12;;;;;;;;;6.75;5.25;;;;;;;;5053241;28;9739;-84
2023/07/05 01:05:39;;;;;;;;;5.75;5.75;;;;;;;;5054267;28;8935;-84
2023/07/05 01:08:07;;;;;;;;;6.75;6.75;;;;;;;;5054248;28;8861;-84
2023/07/05 01:10:35;;;;;;;;;4.75;4.75;;;;;;;;5054430;28;8849;-83
2023/07/05 01:13:08;;;;;;;;;6.00;6.00;;;;;;;;5053528;28;8854;-83
2023/07/05 01:15:40;;;;;;;;;6.75;6.00;;;;;;;;5052897;28;8912;-84
2023/07/05 01:18:16;;;;;;;;;7.50;7.50;;;;;;;;5053924;28;8988;-84
2023/07/05 01:20:49;;;;;;;;;5.00;5.00;;;;;;;;5053430;28;8912;-86
2023/07/05 01:23:45;;;;;;;;;7.25;6.25;;;;;;;;5056159;28;8873;-84
2023/07/05 01:26:26;;;;;;;;;8.00;8.00;;;;;;;;5047055;28;8869;-85
2023/07/05 01:29:09;;;;;;;;;9.75;7.25;;;;;;;;5052029;28;8926;-85
2023/07/05 01:31:56;;;;;;;;;7.25;7.25;;;;;;;;5064704;28;8822;-85
2023/07/05 01:34:31;;;;;;;;;8.50;8.50;;;;;;;;5064969;28;8859;-84
2023/07/05 01:36:58;;;;;;;;;5.33;4.00;;;;;;;;5071005;28;8905;-83
2023/07/05 01:39:26;;;;;;;;;9.25;6.25;;;;;;;;5064064;28;8972;-85
2023/07/05 01:41:53;;;;;;;;;7.00;6.00;;;;;;;;5065483;28;8865;-83
2023/07/05 01:44:20;;;;;;;;;5.67;5.67;;;;;;;;5071159;28;9114;-86
2023/07/05 01:46:55;;;;;;;;;9.00;5.67;;;;;;;;5069953;28;8953;-84
2023/07/05 01:49:43;;;;;;;;;6.33;6.33;;;;;;;;5071057;28;9739;-83
2023/07/05 01:52:15;;;;;;;;;3.67;3.33;;;;;;;;5058608;28;9048;-83
2023/07/05 01:54:49;;;;;;;;;6.00;6.00;;;;;;;;5050940;28;8963;-83
2023/07/05 01:57:22;;;;;;;;;7.67;7.67;;;;;;;;5040312;28;8892;-83
2023/07/05 01:59:55;;;;;;;;;7.00;7.00;;;;;;;;5053305;28;9111;-84
2023/07/05 02:02:27;;;;;;;;;9.00;8.00;;;;;;;;5051989;28;9129;-83
2023/07/05 02:04:55;;;;;;;;;10.33;7.00;;;;;;;;5051507;28;8943;-83
2023/07/05 02:07:26;;;;;;;;;6.00;6.00;;;;;;;;5053277;28;9062;-84
2023/07/05 02:09:54;;;;;;;;;9.00;6.00;;;;;;;;5055617;28;9005;-84
2023/07/05 02:12:21;;;;;;;;;8.33;7.00;;;;;;;;5061097;28;9116;-83
2023/07/05 02:14:48;;;;;;;;;8.33;6.00;;;;;;;;5070027;28;8948;-86
2023/07/05 02:17:16;;;;;;;;;5.33;5.33;;;;;;;;5063178;28;9087;-85
2023/07/05 02:19:44;;;;;;;;;3.25;3.25;;;;;;;;5055222;28;9056;-86
2023/07/05 02:22:12;;;;;;;;;4.67;4.67;;;;;;;;5054497;28;8864;-84
2023/07/05 02:24:42;;;;;;;;;4.00;4.00;;;;;;;;5065316;28;9241;-83
2023/07/05 02:27:13;;;;;;;;;6.67;5.00;;;;;;;;5055293;28;8949;-83
2023/07/05 02:29:40;;;;;;;;;4.50;4.50;;;;;;;;5054665;28;9041;-83
2023/07/05 02:32:09;;;;;;;;;4.00;4.00;;;;;;;;5052663;28;8855;-86
2023/07/05 02:34:40;;;;;;;;;2.50;2.50;;;;;;;;5063242;28;8977;-85
2023/07/05 02:37:11;;;;;;;;;4.00;2.33;;;;;;;;5056694;28;8866;-87
2023/07/05 02:39:39;;;;;;;;;2.50;2.50;;;;;;;;5052162;28;9041;-85
2023/07/05 02:42:08;;;;;;;;;4.00;4.00;;;;;;;;5053917;28;8849;-85
2023/07/05 02:44:35;;;;;;;;;5.00;3.33;;;;;;;;5053854;28;8924;-86
2023/07/05 02:47:03;;;;;;;;;3.00;3.00;;;;;;;;5051151;28;9040;-85
2023/07/05 02:49:30;;;;;;;;;3.00;3.00;;;;;;;;5056192;28;8967;-87
2023/07/05 02:51:58;;;;;;;;;2.33;2.00;;;;;;;;5051740;28;9808;-85
2023/07/05 02:54:26;;;;;;;;;2.00;2.00;;;;;;;;5051761;28;9018;-86
2023/07/05 02:56:54;;;;;;;;;3.00;3.00;;;;;;;;5053497;28;8947;-86
2023/07/05 02:59:21;;;;;;;;;2.33;2.33;;;;;;;;5055655;28;9163;-84
2023/07/05 03:01:48;;;;;;;;;3.00;3.00;;;;;;;;5056650;28;9043;-85
2023/07/05 03:04:16;;;;;;;;;3.67;3.67;;;;;;;;5054532;28;9044;-84
2023/07/05 03:06:43;;;;;;;;;3.00;2.00;;;;;;;;5053857;28;9366;-84
2023/07/05 03:09:10;;;;;;;;;3.67;2.00;;;;;;;;5053732;28;9188;-84
2023/07/05 03:11:39;;;;;;;;;3.33;3.00;;;;;;;;5056926;28;9111;-84
2023/07/05 03:14:06;;;;;;;;;3.67;2.67;;;;;;;;5058388;28;10061;-85
2023/07/05 03:16:34;;;;;;;;;1.00;1.00;;;;;;;;5053367;28;9268;-84
2023/07/05 03:19:01;;;;;;;;;2.00;2.00;;;;;;;;5049992;28;9187;-85
2023/07/05 03:21:28;;;;;;;;;4.00;2.00;;;;;;;;5050051;28;9277;-84
2023/07/05 03:23:55;;;;;;;;;2.00;2.00;;;;;;;;5050058;28;9002;-85
2023/07/05 03:26:24;;;;;;;;;4.33;2.00;;;;;;;;5056684;28;8973;-83
2023/07/05 03:28:52;;;;;;;;;1.00;1.00;;;;;;;;5052055;28;9086;-84
2023/07/05 03:31:20;;;;;;;;;3.00;1.33;;;;;;;;5049526;28;9865;-84
2023/07/05 03:33:48;;;;;;;;;1.00;1.00;;;;;;;;5050048;28;9120;-85
2023/07/05 03:36:18;;;;;;;;;3.33;2.33;;;;;;;;5049910;28;9107;-84
2023/07/05 03:38:45;;;;;;;;;3.00;1.67;;;;;;;;5052822;28;9145;-86
2023/07/05 03:41:14;;;;;;;;;3.00;3.00;;;;;;;;5050302;28;8961;-84
2023/07/05 03:43:43;;;;;;;;;1.00;1.00;;;;;;;;5058979;28;9174;-86
2023/07/05 03:46:13;;;;;;;;;2.00;2.00;;;;;;;;5049896;28;9121;-81
2023/07/05 03:48:42;;;;;;;;;1.00;1.00;;;;;;;;5045586;28;9263;-87
2023/07/05 03:51:11;;;;;;;;;2.00;2.00;;;;;;;;5048855;28;9031;-85
2023/07/05 03:53:39;;;;;;;;;1.00;1.00;;;;;;;;5049119;28;9185;-82
2023/07/05 03:56:08;;;;;;;;;2.00;2.00;;;;;;;;5052482;28;9255;-86
2023/07/05 03:58:36;;;;;;;;;1.67;1.33;;;;;;;;5051459;28;9252;-74
2023/07/05 04:01:05;;;;;;;;;2.67;1.00;;;;;;;;5049476;28;9051;-76
2023/07/05 04:03:34;;;;;;;;;1.00;1.00;;;;;;;;5048397;28;9315;-81
2023/07/05 04:06:03;;;;;;;;;2.00;2.00;;;;;;;;5049459;28;9216;-84
2023/07/05 04:08:30;;;;;;;;;3.00;2.00;;;;;;;;5049117;28;9404;-84
2023/07/05 04:10:57;;;;;;;;;2.00;2.00;;;;;;;;5048083;28;9134;-82
2023/07/05 04:13:25;;;;;;;;;1.33;1.33;;;;;;;;5055377;28;9201;-81
2023/07/05 04:16:00;;;;;;;;;2.00;1.00;;;;;;;;5054632;28;9082;-79
2023/07/05 04:18:27;;;;;;;;;5.00;1.00;;;;;;;;5050608;28;9114;-85
2023/07/05 04:20:56;;;;;;;;;4.00;2.33;;;;;;;;5053523;28;9379;-88
2023/07/05 04:23:23;;;;;;;;;1.00;1.00;;;;;;;;5059829;28;9188;-87
2023/07/05 04:25:50;;;;;;;;;1.00;1.00;;;;;;;;5050515;28;9162;-87
2023/07/05 04:28:18;;;;;;;;;1.00;1.00;;;;;;;;5050692;28;9206;-88
2023/07/05 04:30:45;;;;;;;;;1.00;1.00;;;;;;;;5065842;28;9131;-88
2023/07/05 04:33:12;;;;;;;;;2.33;2.33;;;;;;;;5052924;28;9274;-82
2023/07/05 04:35:46;;;;;;;;;3.00;1.67;;;;;;;;5053600;28;9314;-89
2023/07/05 04:38:15;;;;;;;;;4.00;1.00;;;;;;;;5055644;28;9231;-87
2023/07/05 04:40:42;;;;;;;;;2.67;2.67;;;;;;;;5059551;28;9878;-79
2023/07/05 04:43:12;;;;;;;;;1.67;1.67;;;;;;;;5062190;28;9511;-86
2023/07/05 04:45:40;;;;;;;;;1.67;1.67;;;;;;;;5054209;28;9298;-83
2023/07/05 04:48:10;;;;;;;;;0.33;0.33;;;;;;;;5054987;28;9205;-84
2023/07/05 04:50:39;;;;;;;;;1.00;1.00;;;;;;;;5056933;28;9108;-86
2023/07/05 04:53:06;;;;;;;;;2.00;0.33;;;;;;;;5058749;28;9115;-79
2023/07/05 04:55:35;;;;;;;;;1.00;1.00;;;;;;;;5057876;28;9377;-87
2023/07/05 04:58:04;;;;;;;;;1.00;1.00;;;;;;;;5056587;28;9102;-87
2023/07/05 05:00:34;;;;;;;;;2.00;2.00;;;;;;;;5071738;28;9105;-87
2023/07/05 05:03:01;;;;;;;;;2.00;2.00;;;;;;;;5057651;28;9226;-86
2023/07/05 05:05:28;;;;;;;;;4.00;3.00;;;;;;;;5062478;28;9331;-87
2023/07/05 05:07:55;;;;;;;;;2.00;2.00;;;;;;;;5057237;28;9176;-87
2023/07/05 05:10:23;;;;;;;;;1.00;1.00;;;;;;;;5062388;28;9084;-82
2023/07/05 05:12:51;;;;;;;;;2.00;2.00;;;;;;;;5068259;28;9092;-83
2023/07/05 05:15:19;;;;;;;;;2.33;1.00;;;;;;;;5052997;28;9035;-87
2023/07/05 05:17:46;;;;;;;;;4.67;1.67;;;;;;;;5053181;28;9067;-88
2023/07/05 05:20:13;;;;;;;;;1.00;1.00;;;;;;;;5053666;28;8947;-80
2023/07/05 05:22:40;;;;;;;;;1.00;1.00;;;;;;;;5054675;28;9017;-91
2023/07/05 05:25:10;;;;;;;;;1.00;1.00;;;;;;;;5054511;28;9841;-79
2023/07/05 05:27:37;;;;;;;;;1.00;1.00;;;;;;;;5055222;28;8930;-89
2023/07/05 05:30:08;;;;;;;;;3.00;1.33;;;;;;;;5057188;28;8945;-88
2023/07/05 05:32:35;;;;;;;;;1.00;1.00;;;;;;;;5057278;28;9797;-88
2023/07/05 05:35:02;;;;;;;;;2.75;1.25;;;;;;;;5057416;28;8983;-86
2023/07/05 05:37:30;;;;;;;;;5.00;2.00;;;;;;;;5057303;28;8873;-94
2023/07/05 05:39:57;;;;;;;;;2.00;2.00;;;;;;;;5058318;28;9203;-83
2023/07/05 05:42:24;;;;;;;;;1.75;1.25;;;;;;;;5059415;28;8943;-84
2023/07/05 05:44:51;;;;;;;;;2.33;1.33;;;;;;;;5062022;28;8977;-84
2023/07/05 05:47:20;;;;;;;;;1.00;1.00;;;;;;;;5058126;28;8945;-86
2023/07/05 05:49:47;;;;;;;;;3.00;1.00;;;;;;;;5069184;28;8949;-85
2023/07/05 05:52:14;;;;;;;;;1.00;1.00;;;;;;;;5056963;28;8952;-88
2023/07/05 05:54:42;;;;;;;;;1.25;1.25;;;;;;;;5051825;28;8879;-92
2023/07/05 05:57:11;;;;;;;;;1.00;1.00;;;;;;;;5040508;28;8975;-92
2023/07/05 05:59:44;;;;;;;;;2.00;2.00;;;;;;;;5052648;28;8857;-88
2023/07/05 06:02:12;;;;;;;;;3.00;1.00;;;;;;;;5053399;28;8797;-85
2023/07/05 06:04:41;;;;;;;;;1.00;1.00;;;;;;;;5054332;28;8847;-95
2023/07/05 06:07:12;;;;;;;;;1.00;1.00;;;;;;;;5059164;28;8862;-92
2023/07/05 06:09:40;;;;;;;;;1.00;1.00;;;;;;;;5060360;28;8980;-90
2023/07/05 06:12:08;;;;;;;;;3.00;2.00;;;;;;;;5060664;28;8897;-95
2023/07/05 06:14:35;;;;;;;;;2.00;2.00;;;;;;;;5061199;28;8846;-83
2023/07/05 06:17:03;;;;;;;;;3.33;2.33;;;;;;;;5057271;28;8875;-96
2023/07/05 06:19:30;;;;;;;;;5.50;4.75;;;;;;;;5058148;28;8853;-93
2023/07/05 06:21:59;;;;;;;;;3.25;2.25;;;;;;;;5056898;28;8980;-94
2023/07/05 06:24:27;;;;;;;;;2.00;2.00;;;;;;;;5070722;28;8877;-94
2023/07/05 06:26:54;;;;;;;;;3.25;1.75;;;;;;;;5056337;28;8862;-88
2023/07/05 06:29:21;;;;;;;;;5.50;2.75;;;;;;;;5054768;28;9007;-88
2023/07/05 06:31:48;;;;;;;;;2.25;2.25;;;;;;;;5053047;28;8786;-80
2023/07/05 06:34:16;;;;;;;;;3.50;3.25;;;;;;;;5058968;28;8975;-83
2023/07/05 06:36:43;;;;;;;;;2.25;2.25;;;;;;;;5064063;28;8855;-86
2023/07/05 06:39:11;;;;;;;;;3.50;3.50;;;;;;;;5065044;28;8857;-85
2023/07/05 06:41:41;;;;;;;;;3.75;3.75;;;;;;;;5066343;28;8885;-76
2023/07/05 06:44:11;;;;;;;;;4.00;3.00;;;;;;;;5057983;28;8996;-79
2023/07/05 06:46:41;;;;;;;;;4.50;3.00;;;;;;;;5066910;28;8855;-83
2023/07/05 06:49:09;;;;;;;;;4.00;3.00;;;;;;;;5060774;28;8845;-77
2023/07/05 06:51:36;;;;;;;;;2.25;2.25;;;;;;;;5068463;28;8865;-85
2023/07/05 06:54:03;;;;;;;;;3.00;3.00;;;;;;;;5050245;28;9798;-83
2023/07/05 06:56:32;;;;;;;;;3.25;3.25;;;;;;;;5051577;28;8969;-93
2023/07/05 06:58:59;;;;;;;;;3.25;3.25;;;;;;;;5050441;28;8875;-91
2023/07/05 07:01:27;;;;;;;;;3.75;3.75;;;;;;;;5049504;28;8846;-93
2023/07/05 07:03:54;;;;;;;;;4.50;4.50;;;;;;;;5050221;28;8876;-88
2023/07/05 07:06:21;;;;;;;;;6.25;3.00;;;;;;;;5050004;28;8958;-87
2023/07/05 07:08:48;;;;;;;;;2.00;2.00;;;;;;;;5060789;28;8873;-78
2023/07/05 07:11:16;;;;;;;;;2.75;2.75;;;;;;;;5052723;28;8870;-83
2023/07/05 07:13:44;;;;;;;;;5.00;3.75;;;;;;;;5050114;28;8999;-84
2023/07/05 07:16:13;;;;;;;;;2.75;2.75;;;;;;;;5068177;28;8843;-84
2023/07/05 07:18:45;;;;;;;;;3.25;3.25;;;;;;;;5061642;28;8853;-82
2023/07/05 07:21:12;;;;;;;;;3.50;3.25;;;;;;;;5056053;28;8881;-77
2023/07/05 07:23:42;;;;;;;;;3.75;3.50;;;;;;;;5053749;28;8857;-91
2023/07/05 07:26:12;;;;;;;;;5.75;3.75;;;;;;;;5053975;28;8850;-84
2023/07/05 07:28:40;;;;;;;;;3.00;3.00;;;;;;;;5050746;28;8845;-85
2023/07/05 07:31:13;;;;;;;;;2.00;2.00;;;;;;;;5049354;28;8821;-90
2023/07/05 07:33:41;;;;;;;;;3.75;3.75;;;;;;;;5064128;28;8843;-89
2023/07/05 07:36:10;;;;;;;;;5.00;2.25;;;;;;;;5070280;28;8851;-83
2023/07/05 07:38:37;;;;;;;;;6.00;4.25;;;;;;;;5066129;28;8908;-82
2023/07/05 07:41:05;;;;;;;;;4.00;4.00;;;;;;;;5057214;28;8865;-76
2023/07/05 07:43:32;;;;;;;;;3.00;3.00;;;;;;;;5052695;28;9302;-84
2023/07/05 07:45:59;;;;;;;;;3.00;3.00;;;;;;;;5050096;28;9000;-86
2023/07/05 07:48:28;;;;;;;;;5.00;3.25;;;;;;;;5065646;28;9176;-86
2023/07/05 07:50:55;;;;;;;;;3.50;3.50;;;;;;;;5059515;28;8976;-84
2023/07/05 07:53:23;;;;;;;;;5.25;3.50;;;;;;;;5051679;28;8861;-85
2023/07/05 07:55:52;;;;;;;;;3.00;3.00;;;;;;;;5069919;28;8881;-82
2023/07/05 07:58:20;;;;;;;;;5.00;3.50;;;;;;;;5057223;28;8949;-88
2023/07/05 08:00:47;;;;;;;;;5.75;4.00;;;;;;;;5061318;28;8810;-87
2023/07/05 08:03:14;;;;;;;;;6.50;4.25;;;;;;;;5053541;28;8952;-86
2023/07/05 08:05:43;;;;;;;;;4.75;4.75;;;;;;;;5062198;28;8961;-80
2023/07/05 08:08:10;;;;;;;;;5.75;4.00;;;;;;;;5060654;28;8864;-80
2023/07/05 08:10:38;;;;;;;;;5.00;5.00;;;;;;;;5064402;28;8973;-86
2023/07/05 08:13:05;;;;;;;;;4.50;4.50;;;;;;;;5057068;28;8855;-85
2023/07/05 08:15:35;;;;;;;;;4.50;3.00;;;;;;;;5057252;28;8893;-88
2023/07/05 08:18:03;;;;;;;;;2.00;2.00;;;;;;;;5050362;28;8885;-86
2023/07/05 08:20:30;;;;;;;;;7.25;4.75;;;;;;;;5062511;28;8862;-80
2023/07/05 08:22:59;;;;;;;;;3.00;2.50;;;;;;;;5050837;28;8861;-82
2023/07/05 08:25:26;;;;;;;;;4.00;4.00;;;;;;;;5051843;28;8861;-87
2023/07/05 08:27:53;;;;;;;;;4.00;3.00;;;;;;;;5050514;28;8980;-81
2023/07/05 08:30:22;;;;;;;;;2.75;2.50;;;;;;;;5051671;28;8975;-81
2023/07/05 08:32:49;;;;;;;;;4.00;4.00;;;;;;;;5038046;28;8889;-80
2023/07/05 08:35:16;;;;;;;;;3.25;3.25;;;;;;;;5052707;28;8865;-79
2023/07/05 08:37:48;;;;;;;;;5.25;2.75;;;;;;;;5041958;28;8857;-83
2023/07/05 08:40:17;;;;;;;;;4.75;3.00;;;;;;;;5053256;28;8872;-85
2023/07/05 08:42:52;;;;;;;;;3.75;3.75;;;;;;;;5053105;28;8988;-85
2023/07/05 08:45:24;;;;;;;;;5.75;4.00;;;;;;;;5052267;28;8980;-84
2023/07/05 08:47:54;;;;;;;;;6.25;3.00;;;;;;;;5049682;28;8956;-87
2023/07/05 08:50:29;;;;;;;;;6.25;4.75;;;;;;;;5052257;28;8874;-90
2023/07/05 08:53:01;;;;;;;;;4.00;3.00;;;;;;;;5050443;28;8971;-86
2023/07/05 08:55:48;;;;;;;;;6.25;4.00;;;;;;;;5070023;28;8885;-92
2023/07/05 08:58:21;;;;;;;;;3.75;3.75;;;;;;;;5055777;28;8889;-84
2023/07/05 09:00:56;;;;;;;;;3.25;3.25;;;;;;;;5044929;28;8889;-92
2023/07/05 09:03:28;;;;;;;;;5.25;3.75;;;;;;;;5055446;28;8880;-86
2023/07/05 09:06:09;;;;;;;;;4.00;3.00;;;;;;;;5065201;28;8847;-87
2023/07/05 09:08:45;;;;;;;;;3.00;3.00;;;;;;;;5046139;28;8830;-88
2023/07/05 09:11:19;;;;;;;;;2.75;2.75;;;;;;;;5049303;28;8857;-80
2023/07/05 09:13:46;;;;;;;;;3.25;3.25;;;;;;;;5051890;28;8857;-90
2023/07/05 09:16:19;;;;;;;;;3.25;3.25;;;;;;;;5052977;28;9033;-89
2023/07/05 09:18:57;;;;;;;;;2.75;2.75;;;;;;;;5040056;28;8854;-87
2023/07/05 09:21:31;;;;;;;;;4.75;3.00;;;;;;;;5052918;28;8880;-90
2023/07/05 09:24:05;;;;;;;;;3.00;3.00;;;;;;;;5052878;28;8986;-82
2023/07/05 09:26:36;;;;;;;;;6.00;4.50;;;;;;;;5054787;28;9269;-87
2023/07/05 09:29:09;;;;;;;;;3.75;3.75;;;;;;;;5051996;28;9021;-93
2023/07/05 09:31:37;;;;;;;;;4.50;3.50;;;;;;;;5053467;28;8894;-90
2023/07/05 09:34:19;;;;;;;;;5.50;4.25;;;;;;;;5054962;28;8885;-86
2023/07/05 09:36:48;;;;;;;;;2.00;2.00;;;;;;;;5045549;28;8861;-83
2023/07/05 09:39:29;;;;;;;;;6.75;4.00;;;;;;;;5054641;28;8927;-86
2023/07/05 09:42:00;;;;;;;;;3.00;3.00;;;;;;;;5054039;28;8865;-87
2023/07/05 09:44:27;;;;;;;;;0.25;0.25;;;;;;;;5053820;28;8843;-85
2023/07/05 09:46:55;;;;;;;;;2.75;2.75;;;;;;;;5066090;28;8885;-92
2023/07/05 09:49:22;;;;;;;;;4.50;2.75;;;;;;;;5052995;28;8865;-90
2023/07/05 09:51:50;;;;;;;;;2.00;2.00;;;;;;;;5052487;28;8869;-92
2023/07/05 09:54:21;;;;;;;;;3.00;3.00;;;;;;;;5054873;28;8857;-89
2023/07/05 09:57:04;;;;;;;;;2.80;2.80;;;;;;;;5069963;28;8968;-90
2023/07/05 09:59:33;;;;;;;;;4.80;3.00;;;;;;;;5075133;28;8843;-89
2023/07/05 10:02:16;;;;;;;;;3.20;2.20;;;;;;;;5067226;28;8918;-87
2023/07/05 10:04:48;;;;;;;;;5.20;2.20;;;;;;;;5067327;28;8843;-87
2023/07/05 10:07:16;;;;;;;;;6.40;2.80;;;;;;;;5072413;28;9008;-81
2023/07/05 10:09:56;;;;;;;;;4.60;3.80;;;;;;;;5054479;28;8865;-84
2023/07/05 10:12:29;;;;;;;;;1.80;1.80;;;;;;;;5051325;28;8861;-79
2023/07/05 10:14:57;;;;;;;;;2.60;2.60;;;;;;;;5069201;28;9649;-75
2023/07/05 10:17:24;;;;;;;;;2.60;2.60;;;;;;;;5070847;28;8866;-84
2023/07/05 10:19:53;;;;;;;;;3.60;2.00;;;;;;;;5069858;28;8835;-81
2023/07/05 10:22:28;;;;;;;;;3.00;3.00;;;;;;;;5070197;28;8858;-82
2023/07/05 10:25:00;;;;;;;;;1.00;1.00;;;;;;;;5051293;28;8877;-83
2023/07/05 10:27:32;;;;;;;;;2.20;2.20;;;;;;;;5066120;28;8843;-79
2023/07/05 10:30:01;;;;;;;;;3.00;3.00;;;;;;;;5060411;28;9032;-80
2023/07/05 10:32:31;;;;;;;;;2.60;1.60;;;;;;;;5064485;28;8801;-77
2023/07/05 10:35:02;;;;;;;;;0.80;0.80;;;;;;;;5069633;28;8850;-79
2023/07/05 10:37:34;;;;;;;;;2.80;2.00;;;;;;;;5069269;28;8931;-84
2023/07/05 10:40:10;;;;;;;;;1.80;1.80;;;;;;;;5056413;28;8853;-81
2023/07/05 10:42:41;;;;;;;;;2.60;2.60;;;;;;;;5070230;28;8835;-82
2023/07/05 10:45:13;;;;;;;;;3.00;1.00;;;;;;;;5067750;28;8862;-79
2023/07/05 10:47:41;;;;;;;;;4.40;3.60;;;;;;;;5069674;28;8850;-79
2023/07/05 10:50:10;;;;;;;;;3.20;1.60;;;;;;;;5069546;28;8893;-77
2023/07/05 10:52:44;;;;;;;;;3.00;3.00;;;;;;;;5061097;28;8861;-78
2023/07/05 10:55:15;;;;;;;;;4.60;3.00;;;;;;;;5063746;28;8849;-79
2023/07/05 10:57:45;;;;;;;;;3.00;3.00;;;;;;;;5050852;28;8860;-75
2023/07/05 11:00:28;;;;;;;;;2.60;2.60;;;;;;;;5049823;28;9609;-75
2023/07/05 11:02:58;;;;;;;;;2.60;2.60;;;;;;;;5050880;28;8904;-79
2023/07/05 11:05:28;;;;;;;;;5.00;3.40;;;;;;;;5061617;28;8873;-90
2023/07/05 11:07:58;;;;;;;;;3.40;2.00;;;;;;;;5055429;28;8839;-87
2023/07/05 11:10:25;;;;;;;;;2.00;2.00;;;;;;;;5061163;28;8935;-87
2023/07/05 11:12:54;;;;;;;;;2.00;2.00;;;;;;;;5057310;28;8965;-87
2023/07/05 11:15:22;;;;;;;;;4.00;4.00;;;;;;;;5060225;28;8873;-86
2023/07/05 11:17:49;;;;;;;;;2.80;2.80;;;;;;;;5053321;28;8849;-85
2023/07/05 11:20:46;;;;;;;;;2.40;2.40;;;;;;;;5052352;28;8893;-83
2023/07/05 11:23:39;;;;;;;;;3.20;3.20;;;;;;;;5041848;28;8999;-81
2023/07/05 11:26:07;;;;;;;;;2.60;2.60;;;;;;;;5068083;28;8886;-83
2023/07/05 11:28:37;;;;;;;;;4.60;3.00;;;;;;;;5062384;28;8866;-81
2023/07/05 11:31:05;;;;;;;;;2.00;2.00;;;;;;;;5056923;28;9652;-83
2023/07/05 11:33:33;;;;;;;;;1.00;1.00;;;;;;;;5056198;28;8873;-90
2023/07/05 11:36:05;;;;;;;;;3.00;3.00;;;;;;;;5044389;28;8869;-84
2023/07/05 11:39:07;;;;;;;;;3.40;3.40;;;;;;;;5050079;28;8895;-86
2023/07/05 11:41:39;;;;;;;;;3.80;3.80;;;;;;;;5009519;28;8864;-82
2023/07/05 11:44:25;;;;;;;;;3.00;3.00;;;;;;;;5008864;28;8963;-78
2023/07/05 11:46:52;;;;;;;;;2.40;2.40;;;;;;;;5034515;28;8866;-83
2023/07/05 11:49:36;;;;;;;;;1.60;1.60;;;;;;;;5050121;28;8984;-81
2023/07/05 11:52:16;;;;;;;;;2.40;2.40;;;;;;;;5058557;28;8846;-78
2023/07/05 11:55:00;;;;;;;;;2.40;2.40;;;;;;;;5051741;28;9689;-80
2023/07/05 11:57:32;;;;;;;;;3.20;3.20;;;;;;;;5039841;28;8865;-79
2023/07/05 12:00:17;;;;;;;;;3.20;2.00;;;;;;;;5049866;28;8872;-83
2023/07/05 12:02:50;;;;;;;;;3.80;3.80;;;;;;;;5048670;28;8836;-80
2023/07/05 12:05:20;;;;;;;;;3.80;3.80;;;;;;;;5036819;28;9019;-76
2023/07/05 12:07:50;;;;;;;;;5.20;3.00;;;;;;;;5047253;28;8861;-74
2023/07/05 12:10:21;;;;;;;;;2.40;2.40;;;;;;;;5056043;28;8978;-76
2023/07/05 12:12:48;;;;;;;;;2.00;2.00;;;;;;;;5051653;28;8865;-77
2023/07/05 12:15:17;;;;;;;;;1.00;1.00;;;;;;;;5051556;28;8849;-72
2023/07/05 12:17:44;;;;;;;;;2.80;2.80;;;;;;;;5063468;28;8869;-76
2023/07/05 12:20:28;;;;;;;;;4.00;2.80;;;;;;;;5063284;28;8850;-74
2023/07/05 12:22:56;;;;;;;;;2.20;2.20;;;;;;;;5049692;28;8926;-79
2023/07/05 12:25:24;;;;;;;;;1.80;1.80;;;;;;;;5048037;28;8861;-80
2023/07/05 12:27:52;;;;;;;;;2.20;2.20;;;;;;;;5047686;28;8892;-80
2023/07/05 12:30:22;;;;;;;;;3.00;1.40;;;;;;;;5047824;28;8885;-80
2023/07/05 12:32:51;;;;;;;;;2.80;2.80;;;;;;;;5048436;28;8860;-80
2023/07/05 12:35:22;;;;;;;;;3.20;2.00;;;;;;;;5047923;28;9015;-82
2023/07/05 12:37:50;;;;;;;;;2.00;2.00;;;;;;;;5049274;28;9604;-84
2023/07/05 12:40:26;;;;;;;;;5.00;3.00;;;;;;;;5044367;28;8868;-81
2023/07/05 12:42:59;;;;;;;;;3.80;3.80;;;;;;;;5055244;28;8886;-78
2023/07/05 12:45:33;;;;;;;;;3.40;3.40;;;;;;;;5039353;28;8869;-78
2023/07/05 12:48:17;;;;;;;;;2.20;2.20;;;;;;;;5042610;28;8833;-80
2023/07/05 12:50:44;;;;;;;;;2.80;2.80;;;;;;;;5048105;28;8846;-79
2023/07/05 12:53:16;;;;;;;;;3.60;2.20;;;;;;;;5049226;28;8845;-78
2023/07/05 12:55:52;;;;;;;;;4.20;3.20;;;;;;;;5048852;28;9637;-78
2023/07/05 12:58:23;;;;;;;;;2.20;2.20;;;;;;;;5052662;28;8876;-81
2023/07/05 13:00:54;;;;;;;;;3.60;3.60;;;;;;;;5052498;28;8904;-81
2023/07/05 13:03:21;;;;;;;;;4.20;2.60;;;;;;;;5055507;28;8849;-81
2023/07/05 13:05:49;;;;;;;;;3.00;3.00;;;;;;;;5054220;28;8988;-74
2023/07/05 13:08:16;;;;;;;;;4.00;4.00;;;;;;;;5053455;28;8983;-76
2023/07/05 13:10:44;;;;;;;;;3.00;3.00;;;;;;;;5063605;28;8981;-79
2023/07/05 13:13:28;;;;;;;;;3.80;3.80;;;;;;;;5052283;28;8992;-78
2023/07/05 13:15:59;;;;;;;;;3.20;2.00;;;;;;;;5065676;28;8885;-80
2023/07/05 13:18:28;;;;;;;;;2.00;2.00;;;;;;;;5062165;28;9658;-81
2023/07/05 13:21:12;;;;;;;;;2.20;2.20;;;;;;;;5063852;28;8838;-81
2023/07/05 13:23:47;;;;;;;;;5.40;2.40;;;;;;;;5051732;28;8876;-79
2023/07/05 13:26:30;;;;;;;;;2.20;2.20;;;;;;;;5051594;28;8988;-84
2023/07/05 13:29:00;;;;;;;;;3.80;2.40;;;;;;;;5053989;28;8911;-79
2023/07/05 13:31:29;;;;;;;;;3.20;3.00;;;;;;;;5071534;28;8817;-80
2023/07/05 13:33:57;;;;;;;;;4.20;2.40;;;;;;;;5056381;28;9617;-79
2023/07/05 13:36:24;;;;;;;;;3.00;3.00;;;;;;;;5055029;28;8887;-82
2023/07/05 13:38:52;;;;;;;;;1.60;1.60;;;;;;;;5055913;28;8871;-80
2023/07/05 13:41:30;;;;;;;;;3.80;1.00;;;;;;;;5054433;28;8887;-82
2023/07/05 13:43:57;;;;;;;;;2.40;2.00;;;;;;;;5065252;28;8838;-81
2023/07/05 13:46:26;;;;;;;;;1.80;1.80;;;;;;;;5062623;28;8863;-79
2023/07/05 13:48:56;;;;;;;;;3.00;2.00;;;;;;;;5066249;28;8858;-77
2023/07/05 13:51:27;;;;;;;;;2.60;2.60;;;;;;;;5060828;28;8973;-77
2023/07/05 13:53:54;;;;;;;;;1.80;1.80;;;;;;;;5053965;28;8853;-74
2023/07/05 13:56:22;;;;;;;;;2.00;2.00;;;;;;;;5055063;28;8853;-79
2023/07/05 13:58:51;;;;;;;;;2.00;2.00;;;;;;;;5053993;28;8869;-84
2023/07/05 14:01:19;;;;;;;;;0.40;0.40;;;;;;;;5050306;28;8798;-83
2023/07/05 14:03:48;;;;;;;;;1.00;1.00;;;;;;;;5050460;28;8828;-81
2023/07/05 14:06:18;;;;;;;;;1.20;1.20;;;;;;;;5054835;28;8876;-78
2023/07/05 14:08:45;;;;;;;;;0.20;0.20;;;;;;;;5054852;28;8857;-75
2023/07/05 14:11:20;;;;;;;;;2.80;1.00;;;;;;;;5049711;28;8849;-78
2023/07/05 14:13:48;;;;;;;;;1.40;1.40;;;;;;;;5050572;28;8852;-77
2023/07/05 14:16:16;;;;;;;;;0.80;0.80;;;;;;;;5050373;28;8845;-76
2023/07/05 14:18:44;;;;;;;;;2.20;1.80;;;;;;;;5055275;28;8977;-77
2023/07/05 14:21:23;;;;;;;;;3.00;1.40;;;;;;;;5055247;28;8846;-79
2023/07/05 14:23:51;;;;;;;;;1.80;1.80;;;;;;;;5043872;28;8842;-80
2023/07/05 14:26:18;;;;;;;;;0.20;0.20;;;;;;;;5054875;28;8887;-80
2023/07/05 14:28:45;;;;;;;;;2.00;1.00;;;;;;;;5054944;28;9108;-79
2023/07/05 14:31:14;;;;;;;;;1.20;1.20;;;;;;;;5050041;28;8810;-76
2023/07/05 14:33:42;;;;;;;;;0.00;0.00;;;;;;;;5050497;28;8998;-78
2023/07/05 14:36:11;;;;;;;;;2.20;1.20;;;;;;;;5051364;28;8860;-79
2023/07/05 14:38:40;;;;;;;;;0.80;0.80;;;;;;;;5052118;28;8845;-80
2023/07/05 14:41:10;;;;;;;;;0.80;0.80;;;;;;;;5052437;28;8965;-77
2023/07/05 14:43:37;;;;;;;;;0.80;0.80;;;;;;;;5051549;28;8837;-81
2023/07/05 14:46:04;;;;;;;;;2.00;1.00;;;;;;;;5051022;28;8884;-78
2023/07/05 14:48:31;;;;;;;;;1.00;1.00;;;;;;;;5054189;28;9040;-80
2023/07/05 14:50:59;;;;;;;;;1.20;1.20;;;;;;;;5050340;28;8857;-79
2023/07/05 14:53:28;;;;;;;;;4.20;1.20;;;;;;;;5050309;28;8862;-77
2023/07/05 14:55:57;;;;;;;;;1.80;1.80;;;;;;;;5050141;28;8857;-81
2023/07/05 14:58:25;;;;;;;;;1.80;1.80;;;;;;;;5050486;28;8904;-78
2023/07/05 15:00:52;;;;;;;;;0.80;0.80;;;;;;;;5048484;28;8812;-78
2023/07/05 15:03:28;;;;;;;;;2.60;1.00;;;;;;;;5049239;28;8853;-79
2023/07/05 15:05:57;;;;;;;;;2.20;1.80;;;;;;;;5049320;28;9735;-78
2023/07/05 15:08:25;;;;;;;;;3.00;1.60;;;;;;;;5047886;28;9735;-79
2023/07/05 15:10:53;;;;;;;;;0.80;0.80;;;;;;;;5049062;28;8873;-79
2023/07/05 15:13:29;;;;;;;;;2.00;0.40;;;;;;;;5050614;28;8973;-81